sensor_id;sensor_type;location;lat;lon;timestamp;pressure;altitude;pressure_sealevel;temperature;humidity
56064;BME280;41940;52.880;13.012;2022-10-16T00:01:46;100630.94;;;12.83;100.00
56064;BME280;41940;52.880;13.012;2022-10-16T00:04:12;100615.72;;;12.90;100.00
56064;BME280;41940;52.880;13.012;2022-10-16T00:06:38;100629.28;;;12.97;100.00
56064;BME280;41940;52.880;13.012;2022-10-16T00:09:05;100634.75;;;12.88;100.00
56064;BME280;41940;52.880;13.012;2022-10-16T00:11:33;100640.34;;;12.79;100.00
56064;BME280;41940;52.880;13.012;2022-10-16T00:14:01;100640.63;;;12.84;100.00
56064;BME280;41940;52.880;13.012;2022-10-16T00:16:28;100640.72;;;12.99;100.00
56064;BME280;41940;52.880;13.012;2022-10-16T00:18:54;100634.25;;;13.08;100.00
56064;BME280;41940;52.880;13.012;2022-10-16T00:21:22;100638.84;;;12.99;100.00
56064;BME280;41940;52.880;13.012;2022-10-16T00:23:53;100633.75;;;13.28;100.00
56064;BME280;41940;52.880;13.012;2022-10-16T00:26:20;100644.41;;;13.21;100.00
56064;BME280;41940;52.880;13.012;2022-10-16T00:28:49;100649.31;;;13.41;100.00
56064;BME280;41940;52.880;13.012;2022-10-16T00:31:17;100657.78;;;13.29;100.00
56064;BME280;41940;52.880;13.012;2022-10-16T00:33:43;100653.44;;;13.28;100.00
56064;BME280;41940;52.880;13.012;2022-10-16T00:36:14;100658.09;;;13.34;100.00
56064;BME280;41940;52.880;13.012;2022-10-16T00:38:40;100663.34;;;13.51;100.00
56064;BME280;41940;52.880;13.012;2022-10-16T00:41:07;100652.06;;;13.56;100.00
56064;BME280;41940;52.880;13.012;2022-10-16T00:49:16;100658.41;;;13.40;100.00
56064;BME280;41940;52.880;13.012;2022-10-16T00:51:46;100652.56;;;13.51;100.00
56064;BME280;41940;52.880;13.012;2022-10-16T00:54:22;100656.59;;;13.55;100.00
56064;BME280;41940;52.880;13.012;2022-10-16T00:56:49;100670.31;;;13.45;100.00
56064;BME280;41940;52.880;13.012;2022-10-16T00:59:35;100674.22;;;13.58;100.00
56064;BME280;41940;52.880;13.012;2022-10-16T01:02:03;100671.31;;;13.44;100.00
56064;BME280;41940;52.880;13.012;2022-10-16T01:04:34;100667.56;;;13.54;100.00
56064;BME280;41940;52.880;13.012;2022-10-16T01:07:14;100671.53;;;13.58;100.00
56064;BME280;41940;52.880;13.012;2022-10-16T01:09:52;100670.16;;;13.62;100.00
56064;BME280;41940;52.880;13.012;2022-10-16T01:15:14;100676.19;;;13.49;100.00
56064;BME280;41940;52.880;13.012;2022-10-16T01:17:53;100673.75;;;13.54;100.00
56064;BME280;41940;52.880;13.012;2022-10-16T01:20:32;100682.41;;;13.64;100.00
56064;BME280;41940;52.880;13.012;2022-10-16T01:28:55;100688.69;;;13.42;100.00
56064;BME280;41940;52.880;13.012;2022-10-16T01:31:26;100704.31;;;13.38;100.00
56064;BME280;41940;52.880;13.012;2022-10-16T01:34:02;100708.66;;;13.47;100.00
56064;BME280;41940;52.880;13.012;2022-10-16T01:36:40;100695.03;;;13.49;100.00
56064;BME280;41940;52.880;13.012;2022-10-16T01:39:09;100701.31;;;13.41;100.00
56064;BME280;41940;52.880;13.012;2022-10-16T01:41:48;100701.47;;;13.63;100.00
56064;BME280;41940;52.880;13.012;2022-10-16T01:44:19;100698.06;;;13.46;100.00
56064;BME280;41940;52.880;13.012;2022-10-16T01:46:48;100705.53;;;13.36;100.00
56064;BME280;41940;52.880;13.012;2022-10-16T01:49:16;100693.88;;;13.43;100.00
56064;BME280;41940;52.880;13.012;2022-10-16T01:51:45;100698.22;;;13.44;100.00
56064;BME280;41940;52.880;13.012;2022-10-16T01:54:13;100708.69;;;13.39;100.00
56064;BME280;41940;52.880;13.012;2022-10-16T01:56:41;100707.56;;;13.33;100.00
56064;BME280;41940;52.880;13.012;2022-10-16T01:59:13;100699.00;;;13.30;100.00
56064;BME280;41940;52.880;13.012;2022-10-16T02:01:46;100708.75;;;13.31;100.00
56064;BME280;41940;52.880;13.012;2022-10-16T02:04:19;100726.09;;;13.28;100.00
56064;BME280;41940;52.880;13.012;2022-10-16T02:06:45;100724.13;;;13.22;100.00
56064;BME280;41940;52.880;13.012;2022-10-16T02:09:11;100725.28;;;13.28;100.00
56064;BME280;41940;52.880;13.012;2022-10-16T02:11:36;100722.94;;;13.25;100.00
56064;BME280;41940;52.880;13.012;2022-10-16T02:14:04;100727.66;;;13.23;100.00
56064;BME280;41940;52.880;13.012;2022-10-16T02:16:39;100741.47;;;13.19;100.00
56064;BME280;41940;52.880;13.012;2022-10-16T02:19:06;100743.00;;;13.14;100.00
56064;BME280;41940;52.880;13.012;2022-10-16T02:29:30;100752.69;;;13.00;100.00
56064;BME280;41940;52.880;13.012;2022-10-16T02:32:01;100754.72;;;12.98;100.00
56064;BME280;41940;52.880;13.012;2022-10-16T02:34:29;100755.41;;;12.92;100.00
56064;BME280;41940;52.880;13.012;2022-10-16T02:36:58;100758.81;;;12.85;100.00
56064;BME280;41940;52.880;13.012;2022-10-16T02:39:27;100753.59;;;12.84;100.00
56064;BME280;41940;52.880;13.012;2022-10-16T02:41:54;100759.34;;;12.81;100.00
56064;BME280;41940;52.880;13.012;2022-10-16T02:44:19;100768.97;;;12.75;100.00
56064;BME280;41940;52.880;13.012;2022-10-16T02:46:45;100751.81;;;12.76;100.00
56064;BME280;41940;52.880;13.012;2022-10-16T02:49:10;100767.19;;;12.91;100.00
56064;BME280;41940;52.880;13.012;2022-10-16T02:51:36;100773.66;;;12.73;100.00
56064;BME280;41940;52.880;13.012;2022-10-16T02:54:02;100780.72;;;12.66;100.00
56064;BME280;41940;52.880;13.012;2022-10-16T02:56:28;100786.63;;;12.61;100.00
56064;BME280;41940;52.880;13.012;2022-10-16T02:58:54;100788.66;;;12.67;100.00
56064;BME280;41940;52.880;13.012;2022-10-16T03:01:20;100788.50;;;12.61;100.00
56064;BME280;41940;52.880;13.012;2022-10-16T03:03:45;100788.31;;;12.62;100.00
56064;BME280;41940;52.880;13.012;2022-10-16T03:06:11;100784.28;;;12.58;100.00
56064;BME280;41940;52.880;13.012;2022-10-16T03:08:36;100788.69;;;12.51;100.00
56064;BME280;41940;52.880;13.012;2022-10-16T03:11:02;100792.44;;;12.41;100.00
56064;BME280;41940;52.880;13.012;2022-10-16T03:13:27;100793.91;;;12.44;100.00
56064;BME280;41940;52.880;13.012;2022-10-16T03:15:53;100791.09;;;12.37;100.00
56064;BME280;41940;52.880;13.012;2022-10-16T03:18:18;100784.38;;;12.33;100.00
56064;BME280;41940;52.880;13.012;2022-10-16T03:20:44;100783.38;;;12.26;100.00
56064;BME280;41940;52.880;13.012;2022-10-16T03:23:10;100777.84;;;12.19;100.00
56064;BME280;41940;52.880;13.012;2022-10-16T03:25:35;100784.41;;;12.25;100.00
56064;BME280;41940;52.880;13.012;2022-10-16T03:28:01;100796.13;;;12.32;100.00
56064;BME280;41940;52.880;13.012;2022-10-16T03:30:27;100791.75;;;12.31;100.00
56064;BME280;41940;52.880;13.012;2022-10-16T03:32:52;100798.16;;;12.30;100.00
56064;BME280;41940;52.880;13.012;2022-10-16T03:35:23;100796.50;;;12.29;100.00
56064;BME280;41940;52.880;13.012;2022-10-16T03:37:49;100797.84;;;12.17;100.00
56064;BME280;41940;52.880;13.012;2022-10-16T03:40:16;100810.75;;;12.13;100.00
56064;BME280;41940;52.880;13.012;2022-10-16T03:42:42;100817.81;;;12.14;100.00
56064;BME280;41940;52.880;13.012;2022-10-16T03:45:09;100810.44;;;12.16;100.00
56064;BME280;41940;52.880;13.012;2022-10-16T03:47:34;100809.94;;;12.13;100.00
56064;BME280;41940;52.880;13.012;2022-10-16T03:50:00;100811.59;;;12.05;100.00
56064;BME280;41940;52.880;13.012;2022-10-16T03:52:26;100818.97;;;11.95;100.00
56064;BME280;41940;52.880;13.012;2022-10-16T03:54:51;100820.84;;;11.94;100.00
56064;BME280;41940;52.880;13.012;2022-10-16T03:57:17;100814.47;;;11.95;100.00
56064;BME280;41940;52.880;13.012;2022-10-16T03:59:42;100823.69;;;11.85;100.00
56064;BME280;41940;52.880;13.012;2022-10-16T04:02:08;100824.88;;;11.82;100.00
56064;BME280;41940;52.880;13.012;2022-10-16T04:04:34;100834.25;;;11.86;100.00
56064;BME280;41940;52.880;13.012;2022-10-16T04:06:59;100832.56;;;11.85;100.00
56064;BME280;41940;52.880;13.012;2022-10-16T04:09:25;100835.78;;;11.89;100.00
56064;BME280;41940;52.880;13.012;2022-10-16T04:11:52;100830.41;;;11.89;100.00
56064;BME280;41940;52.880;13.012;2022-10-16T04:14:17;100822.34;;;11.97;100.00
56064;BME280;41940;52.880;13.012;2022-10-16T04:16:43;100826.72;;;11.90;100.00
56064;BME280;41940;52.880;13.012;2022-10-16T04:19:09;100831.75;;;11.85;100.00
56064;BME280;41940;52.880;13.012;2022-10-16T04:21:36;100832.41;;;11.78;100.00
56064;BME280;41940;52.880;13.012;2022-10-16T04:24:01;100844.00;;;11.79;100.00
56064;BME280;41940;52.880;13.012;2022-10-16T04:26:27;100833.59;;;11.84;100.00
56064;BME280;41940;52.880;13.012;2022-10-16T04:28:53;100837.94;;;11.85;100.00
56064;BME280;41940;52.880;13.012;2022-10-16T04:31:19;100842.66;;;11.83;100.00
56064;BME280;41940;52.880;13.012;2022-10-16T04:33:45;100839.13;;;11.83;100.00
56064;BME280;41940;52.880;13.012;2022-10-16T04:36:11;100842.81;;;11.73;100.00
56064;BME280;41940;52.880;13.012;2022-10-16T04:38:36;100841.81;;;11.74;100.00
56064;BME280;41940;52.880;13.012;2022-10-16T04:41:03;100836.59;;;11.73;100.00
56064;BME280;41940;52.880;13.012;2022-10-16T04:43:29;100832.22;;;11.63;100.00
56064;BME280;41940;52.880;13.012;2022-10-16T04:45:55;100833.06;;;11.72;100.00
56064;BME280;41940;52.880;13.012;2022-10-16T04:48:21;100834.25;;;11.78;100.00
56064;BME280;41940;52.880;13.012;2022-10-16T04:50:47;100832.75;;;11.75;100.00
56064;BME280;41940;52.880;13.012;2022-10-16T04:53:12;100831.06;;;11.74;100.00
56064;BME280;41940;52.880;13.012;2022-10-16T04:55:38;100819.50;;;11.82;100.00
56064;BME280;41940;52.880;13.012;2022-10-16T04:58:03;100831.06;;;11.83;100.00
56064;BME280;41940;52.880;13.012;2022-10-16T05:00:29;100831.25;;;11.81;100.00
56064;BME280;41940;52.880;13.012;2022-10-16T05:02:54;100830.88;;;11.76;100.00
56064;BME280;41940;52.880;13.012;2022-10-16T05:05:20;100828.22;;;11.76;100.00
56064;BME280;41940;52.880;13.012;2022-10-16T05:07:47;100838.13;;;11.75;100.00
56064;BME280;41940;52.880;13.012;2022-10-16T05:10:12;100841.97;;;11.73;100.00
56064;BME280;41940;52.880;13.012;2022-10-16T05:12:38;100838.81;;;11.77;100.00
56064;BME280;41940;52.880;13.012;2022-10-16T05:15:04;100833.75;;;11.74;100.00
56064;BME280;41940;52.880;13.012;2022-10-16T05:17:29;100841.97;;;11.73;100.00
56064;BME280;41940;52.880;13.012;2022-10-16T05:19:55;100844.00;;;11.71;100.00
56064;BME280;41940;52.880;13.012;2022-10-16T05:22:21;100856.25;;;11.73;100.00
56064;BME280;41940;52.880;13.012;2022-10-16T05:24:47;100851.88;;;11.72;100.00
56064;BME280;41940;52.880;13.012;2022-10-16T05:27:12;100860.25;;;11.69;100.00
56064;BME280;41940;52.880;13.012;2022-10-16T05:29:45;100859.75;;;11.74;100.00
56064;BME280;41940;52.880;13.012;2022-10-16T05:32:12;100865.13;;;11.74;100.00
56064;BME280;41940;52.880;13.012;2022-10-16T05:34:37;100873.03;;;11.75;100.00
56064;BME280;41940;52.880;13.012;2022-10-16T05:37:03;100880.91;;;11.77;100.00
56064;BME280;41940;52.880;13.012;2022-10-16T05:39:28;100869.84;;;11.80;100.00
56064;BME280;41940;52.880;13.012;2022-10-16T05:41:54;100862.09;;;11.85;100.00
56064;BME280;41940;52.880;13.012;2022-10-16T05:44:19;100856.41;;;11.88;100.00
56064;BME280;41940;52.880;13.012;2022-10-16T05:46:46;100858.75;;;11.91;100.00
56064;BME280;41940;52.880;13.012;2022-10-16T05:49:12;100860.28;;;11.94;100.00
56064;BME280;41940;52.880;13.012;2022-10-16T05:51:37;100862.94;;;11.94;100.00
56064;BME280;41940;52.880;13.012;2022-10-16T05:54:03;100866.50;;;11.94;100.00
56064;BME280;41940;52.880;13.012;2022-10-16T05:56:28;100869.84;;;11.96;100.00
56064;BME280;41940;52.880;13.012;2022-10-16T05:58:54;100865.31;;;11.97;100.00
56064;BME280;41940;52.880;13.012;2022-10-16T06:01:20;100883.97;;;11.99;100.00
56064;BME280;41940;52.880;13.012;2022-10-16T06:03:50;100882.44;;;11.96;100.00
56064;BME280;41940;52.880;13.012;2022-10-16T06:06:18;100884.81;;;11.99;100.00
56064;BME280;41940;52.880;13.012;2022-10-16T06:08:45;100890.88;;;12.01;100.00
56064;BME280;41940;52.880;13.012;2022-10-16T06:11:14;100890.19;;;11.99;100.00
56064;BME280;41940;52.880;13.012;2022-10-16T06:13:40;100887.19;;;12.02;100.00
56064;BME280;41940;52.880;13.012;2022-10-16T06:16:11;100889.50;;;12.05;100.00
56064;BME280;41940;52.880;13.012;2022-10-16T06:18:37;100907.84;;;12.10;100.00
56064;BME280;41940;52.880;13.012;2022-10-16T06:21:16;100912.03;;;12.13;100.00
56064;BME280;41940;52.880;13.012;2022-10-16T06:23:42;100912.53;;;12.16;100.00
56064;BME280;41940;52.880;13.012;2022-10-16T06:26:09;100925.63;;;12.19;100.00
56064;BME280;41940;52.880;13.012;2022-10-16T06:28:35;100927.47;;;12.19;100.00
56064;BME280;41940;52.880;13.012;2022-10-16T06:31:03;100937.06;;;12.21;100.00
56064;BME280;41940;52.880;13.012;2022-10-16T06:33:29;100939.56;;;12.31;100.00
56064;BME280;41940;52.880;13.012;2022-10-16T06:36:03;100939.56;;;12.31;100.00
56064;BME280;41940;52.880;13.012;2022-10-16T06:38:29;100942.41;;;12.54;100.00
56064;BME280;41940;52.880;13.012;2022-10-16T06:40:55;100942.44;;;12.46;100.00
56064;BME280;41940;52.880;13.012;2022-10-16T06:43:21;100935.72;;;12.42;100.00
56064;BME280;41940;52.880;13.012;2022-10-16T06:45:53;100939.41;;;12.49;100.00
56064;BME280;41940;52.880;13.012;2022-10-16T06:48:20;100939.41;;;12.49;100.00
56064;BME280;41940;52.880;13.012;2022-10-16T06:53:20;100954.84;;;12.55;100.00
56064;BME280;41940;52.880;13.012;2022-10-16T06:55:46;100967.97;;;12.59;100.00
56064;BME280;41940;52.880;13.012;2022-10-16T06:58:11;100963.94;;;12.63;100.00
56064;BME280;41940;52.880;13.012;2022-10-16T07:00:37;100960.56;;;12.61;100.00
56064;BME280;41940;52.880;13.012;2022-10-16T07:03:02;100958.19;;;12.66;100.00
56064;BME280;41940;52.880;13.012;2022-10-16T07:05:28;100960.75;;;12.67;100.00
56064;BME280;41940;52.880;13.012;2022-10-16T07:07:53;100964.09;;;12.69;100.00
56064;BME280;41940;52.880;13.012;2022-10-16T07:10:19;100963.22;;;12.77;100.00
56064;BME280;41940;52.880;13.012;2022-10-16T07:12:45;100964.72;;;12.88;100.00
56064;BME280;41940;52.880;13.012;2022-10-16T07:15:10;100966.06;;;12.92;100.00
56064;BME280;41940;52.880;13.012;2022-10-16T07:17:36;100973.44;;;12.98;100.00
56064;BME280;41940;52.880;13.012;2022-10-16T07:20:02;100978.31;;;13.11;100.00
56064;BME280;41940;52.880;13.012;2022-10-16T07:22:28;100975.06;;;13.24;100.00
56064;BME280;41940;52.880;13.012;2022-10-16T07:24:54;100978.91;;;13.38;100.00
56064;BME280;41940;52.880;13.012;2022-10-16T07:27:19;100980.72;;;13.38;100.00
56064;BME280;41940;52.880;13.012;2022-10-16T07:29:47;100971.81;;;13.54;100.00
56064;BME280;41940;52.880;13.012;2022-10-16T07:32:12;100977.53;;;13.51;100.00
56064;BME280;41940;52.880;13.012;2022-10-16T07:34:38;100989.78;;;13.61;100.00
56064;BME280;41940;52.880;13.012;2022-10-16T07:37:04;100997.19;;;13.59;100.00
56064;BME280;41940;52.880;13.012;2022-10-16T07:39:30;100982.31;;;13.72;100.00
56064;BME280;41940;52.880;13.012;2022-10-16T07:41:55;100980.97;;;13.76;100.00
56064;BME280;41940;52.880;13.012;2022-10-16T07:44:21;100975.75;;;13.74;100.00
56064;BME280;41940;52.880;13.012;2022-10-16T07:46:49;100974.41;;;13.70;100.00
56064;BME280;41940;52.880;13.012;2022-10-16T07:49:15;100968.53;;;13.67;100.00
56064;BME280;41940;52.880;13.012;2022-10-16T07:51:40;100980.84;;;13.69;100.00
56064;BME280;41940;52.880;13.012;2022-10-16T07:54:08;100995.03;;;13.86;100.00
56064;BME280;41940;52.880;13.012;2022-10-16T07:56:34;100995.88;;;13.87;100.00
56064;BME280;41940;52.880;13.012;2022-10-16T07:58:59;100990.81;;;13.92;100.00
56064;BME280;41940;52.880;13.012;2022-10-16T08:01:25;100988.66;;;13.87;100.00
56064;BME280;41940;52.880;13.012;2022-10-16T08:03:51;100984.13;;;13.79;100.00
56064;BME280;41940;52.880;13.012;2022-10-16T08:06:18;100993.84;;;13.89;100.00
56064;BME280;41940;52.880;13.012;2022-10-16T08:08:44;100986.31;;;13.84;100.00
56064;BME280;41940;52.880;13.012;2022-10-16T08:11:09;100990.66;;;13.85;100.00
56064;BME280;41940;52.880;13.012;2022-10-16T08:13:36;100999.56;;;13.94;100.00
56064;BME280;41940;52.880;13.012;2022-10-16T08:16:02;101000.81;;;14.06;100.00
56064;BME280;41940;52.880;13.012;2022-10-16T08:18:36;100991.19;;;14.12;100.00
56064;BME280;41940;52.880;13.012;2022-10-16T08:21:03;100989.63;;;14.18;100.00
56064;BME280;41940;52.880;13.012;2022-10-16T08:23:29;100992.22;;;14.34;100.00
56064;BME280;41940;52.880;13.012;2022-10-16T08:25:56;101004.19;;;14.32;100.00
56064;BME280;41940;52.880;13.012;2022-10-16T08:28:23;101009.34;;;14.41;100.00
56064;BME280;41940;52.880;13.012;2022-10-16T08:30:48;101011.72;;;14.36;100.00
56064;BME280;41940;52.880;13.012;2022-10-16T08:33:14;101014.19;;;14.46;100.00
56064;BME280;41940;52.880;13.012;2022-10-16T08:35:40;101029.22;;;14.64;100.00
56064;BME280;41940;52.880;13.012;2022-10-16T08:38:06;101023.47;;;14.67;100.00
56064;BME280;41940;52.880;13.012;2022-10-16T08:40:34;101018.44;;;14.64;100.00
56064;BME280;41940;52.880;13.012;2022-10-16T08:48:09;101036.09;;;14.75;100.00
56064;BME280;41940;52.880;13.012;2022-10-16T08:50:39;101033.31;;;14.83;100.00
56064;BME280;41940;52.880;13.012;2022-10-16T08:53:06;101035.78;;;14.93;100.00
56064;BME280;41940;52.880;13.012;2022-10-16T08:55:46;101028.34;;;15.10;100.00
56064;BME280;41940;52.880;13.012;2022-10-16T08:58:16;101033.47;;;15.20;100.00
56064;BME280;41940;52.880;13.012;2022-10-16T09:00:47;101025.75;;;15.31;100.00
56064;BME280;41940;52.880;13.012;2022-10-16T09:06:46;101033.84;;;15.16;100.00
56064;BME280;41940;52.880;13.012;2022-10-16T09:19:52;101032.38;;;15.59;100.00
56064;BME280;41940;52.880;13.012;2022-10-16T09:22:21;101043.53;;;15.71;100.00
56064;BME280;41940;52.880;13.012;2022-10-16T09:24:49;101047.34;;;15.76;100.00
56064;BME280;41940;52.880;13.012;2022-10-16T09:27:15;101050.06;;;15.61;100.00
56064;BME280;41940;52.880;13.012;2022-10-16T09:29:41;101048.66;;;15.66;100.00
56064;BME280;41940;52.880;13.012;2022-10-16T09:32:18;101038.13;;;15.71;100.00
56064;BME280;41940;52.880;13.012;2022-10-16T09:34:50;101051.84;;;15.69;100.00
56064;BME280;41940;52.880;13.012;2022-10-16T09:37:19;101046.16;;;15.79;100.00
56064;BME280;41940;52.880;13.012;2022-10-16T09:39:47;101046.72;;;15.89;100.00
56064;BME280;41940;52.880;13.012;2022-10-16T09:42:22;101052.16;;;16.11;100.00
56064;BME280;41940;52.880;13.012;2022-10-16T09:44:52;101051.84;;;16.21;100.00
56064;BME280;41940;52.880;13.012;2022-10-16T09:47:23;101044.66;;;16.28;100.00
56064;BME280;41940;52.880;13.012;2022-10-16T09:49:58;101056.38;;;16.35;100.00
56064;BME280;41940;52.880;13.012;2022-10-16T09:52:28;101055.88;;;16.25;100.00
56064;BME280;41940;52.880;13.012;2022-10-16T09:54:59;101052.81;;;16.13;100.00
56064;BME280;41940;52.880;13.012;2022-10-16T09:57:26;101054.22;;;16.09;100.00
56064;BME280;41940;52.880;13.012;2022-10-16T09:59:56;101058.91;;;16.00;100.00
56064;BME280;41940;52.880;13.012;2022-10-16T10:02:30;101049.13;;;15.99;100.00
56064;BME280;41940;52.880;13.012;2022-10-16T10:04:57;101061.78;;;16.14;100.00
56064;BME280;41940;52.880;13.012;2022-10-16T10:07:28;101062.66;;;15.99;100.00
56064;BME280;41940;52.880;13.012;2022-10-16T10:09:59;101074.44;;;15.83;100.00
56064;BME280;41940;52.880;13.012;2022-10-16T10:12:27;101075.88;;;15.79;100.00
56064;BME280;41940;52.880;13.012;2022-10-16T10:14:55;101063.84;;;15.82;100.00
56064;BME280;41940;52.880;13.012;2022-10-16T10:17:26;101072.22;;;15.72;100.00
56064;BME280;41940;52.880;13.012;2022-10-16T10:20:00;101066.16;;;15.70;100.00
56064;BME280;41940;52.880;13.012;2022-10-16T10:25:18;101076.78;;;15.56;100.00
56064;BME280;41940;52.880;13.012;2022-10-16T10:33:12;101078.94;;;15.76;100.00
56064;BME280;41940;52.880;13.012;2022-10-16T10:35:57;101084.72;;;15.73;100.00
56064;BME280;41940;52.880;13.012;2022-10-16T10:39:07;101088.44;;;15.72;100.00
56064;BME280;41940;52.880;13.012;2022-10-16T10:52:43;101101.22;;;16.45;100.00
56064;BME280;41940;52.880;13.012;2022-10-16T10:55:25;101098.59;;;16.73;100.00
56064;BME280;41940;52.880;13.012;2022-10-16T10:58:16;101101.16;;;16.81;100.00
56064;BME280;41940;52.880;13.012;2022-10-16T11:01:09;101103.72;;;16.90;100.00
56064;BME280;41940;52.880;13.012;2022-10-16T11:04:15;101106.91;;;16.72;100.00
56064;BME280;41940;52.880;13.012;2022-10-16T11:06:48;101102.66;;;16.84;100.00
56064;BME280;41940;52.880;13.012;2022-10-16T11:09:23;101096.03;;;16.87;100.00
56064;BME280;41940;52.880;13.012;2022-10-16T11:11:58;101106.78;;;17.02;100.00
56064;BME280;41940;52.880;13.012;2022-10-16T11:17:11;101108.00;;;17.21;100.00
56064;BME280;41940;52.880;13.012;2022-10-16T11:19:48;101103.88;;;17.03;100.00
56064;BME280;41940;52.880;13.012;2022-10-16T11:22:22;101109.56;;;17.08;100.00
56064;BME280;41940;52.880;13.012;2022-10-16T11:27:33;101096.03;;;17.08;100.00
56064;BME280;41940;52.880;13.012;2022-10-16T11:30:05;101103.81;;;17.18;100.00
56064;BME280;41940;52.880;13.012;2022-10-16T11:46:46;101108.53;;;17.66;100.00
56064;BME280;41940;52.880;13.012;2022-10-16T11:49:18;101110.16;;;17.67;100.00
56064;BME280;41940;52.880;13.012;2022-10-16T11:52:06;101116.53;;;17.81;100.00
56064;BME280;41940;52.880;13.012;2022-10-16T11:57:22;101117.13;;;18.18;100.00
56064;BME280;41940;52.880;13.012;2022-10-16T12:05:24;101123.50;;;17.97;100.00
56064;BME280;41940;52.880;13.012;2022-10-16T12:10:30;101129.81;;;18.04;100.00
56064;BME280;41940;52.880;13.012;2022-10-16T12:13:25;101123.97;;;18.07;100.00
56064;BME280;41940;52.880;13.012;2022-10-16T12:15:48;101129.63;;;18.13;100.00
56064;BME280;41940;52.880;13.012;2022-10-16T12:18:24;101127.28;;;18.03;100.00
56064;BME280;41940;52.880;13.012;2022-10-16T12:21:00;101127.69;;;18.00;100.00
56064;BME280;41940;52.880;13.012;2022-10-16T12:23:32;101130.31;;;18.21;100.00
56064;BME280;41940;52.880;13.012;2022-10-16T12:25:59;101122.34;;;18.20;100.00
56064;BME280;41940;52.880;13.012;2022-10-16T12:28:30;101127.59;;;18.21;100.00
56064;BME280;41940;52.880;13.012;2022-10-16T12:31:07;101125.47;;;18.10;100.00
56064;BME280;41940;52.880;13.012;2022-10-16T12:33:43;101126.94;;;18.19;100.00
56064;BME280;41940;52.880;13.012;2022-10-16T12:36:32;101139.25;;;18.22;100.00
56064;BME280;41940;52.880;13.012;2022-10-16T12:38:59;101135.78;;;18.35;100.00
56064;BME280;41940;52.880;13.012;2022-10-16T12:43:53;101137.44;;;18.29;100.00
56064;BME280;41940;52.880;13.012;2022-10-16T12:51:42;101157.41;;;17.80;100.00
56064;BME280;41940;52.880;13.012;2022-10-16T12:54:18;101156.84;;;17.91;100.00
56064;BME280;41940;52.880;13.012;2022-10-16T12:59:56;101149.44;;;17.78;100.00
56064;BME280;41940;52.880;13.012;2022-10-16T13:02:56;101159.28;;;17.86;100.00
56064;BME280;41940;52.880;13.012;2022-10-16T13:05:26;101169.66;;;18.04;100.00
56064;BME280;41940;52.880;13.012;2022-10-16T13:19:24;101176.88;;;17.97;100.00
56064;BME280;41940;52.880;13.012;2022-10-16T13:25:28;101188.06;;;17.30;100.00
56064;BME280;41940;52.880;13.012;2022-10-16T13:28:02;101190.16;;;17.56;100.00
56064;BME280;41940;52.880;13.012;2022-10-16T13:30:36;101196.84;;;17.60;100.00
56064;BME280;41940;52.880;13.012;2022-10-16T13:33:10;101186.38;;;17.51;100.00
56064;BME280;41940;52.880;13.012;2022-10-16T13:35:49;101192.84;;;17.28;100.00
56064;BME280;41940;52.880;13.012;2022-10-16T13:38:21;101185.78;;;17.34;100.00
56064;BME280;41940;52.880;13.012;2022-10-16T13:40:54;101195.75;;;17.26;100.00
56064;BME280;41940;52.880;13.012;2022-10-16T13:43:43;101200.84;;;17.36;100.00
56064;BME280;41940;52.880;13.012;2022-10-16T13:46:16;101190.38;;;17.33;100.00
56064;BME280;41940;52.880;13.012;2022-10-16T13:48:42;101191.22;;;17.34;100.00
56064;BME280;41940;52.880;13.012;2022-10-16T13:51:14;101190.72;;;17.23;100.00
56064;BME280;41940;52.880;13.012;2022-10-16T13:53:40;101195.19;;;17.09;100.00
56064;BME280;41940;52.880;13.012;2022-10-16T13:56:10;101195.25;;;17.16;100.00
56064;BME280;41940;52.880;13.012;2022-10-16T13:58:37;101199.75;;;17.09;100.00
56064;BME280;41940;52.880;13.012;2022-10-16T14:01:18;101204.72;;;17.05;100.00
56064;BME280;41940;52.880;13.012;2022-10-16T14:03:46;101209.03;;;16.99;100.00
56064;BME280;41940;52.880;13.012;2022-10-16T14:06:20;101211.66;;;17.14;100.00
56064;BME280;41940;52.880;13.012;2022-10-16T14:09:02;101217.09;;;17.14;100.00
56064;BME280;41940;52.880;13.012;2022-10-16T14:11:30;101216.69;;;17.18;100.00
56064;BME280;41940;52.880;13.012;2022-10-16T14:13:56;101220.88;;;16.98;100.00
56064;BME280;41940;52.880;13.012;2022-10-16T14:16:30;101222.25;;;17.09;100.00
56064;BME280;41940;52.880;13.012;2022-10-16T14:19:03;101230.41;;;16.94;100.00
56064;BME280;41940;52.880;13.012;2022-10-16T14:21:32;101231.28;;;16.80;100.00
56064;BME280;41940;52.880;13.012;2022-10-16T14:23:58;101228.97;;;16.77;100.00
56064;BME280;41940;52.880;13.012;2022-10-16T14:26:27;101240.97;;;16.89;100.00
56064;BME280;41940;52.880;13.012;2022-10-16T14:29:29;101245.69;;;16.65;100.00
56064;BME280;41940;52.880;13.012;2022-10-16T14:32:20;101244.75;;;16.58;100.00
56064;BME280;41940;52.880;13.012;2022-10-16T14:34:53;101249.34;;;16.28;100.00
56064;BME280;41940;52.880;13.012;2022-10-16T14:37:25;101247.03;;;16.39;100.00
56064;BME280;41940;52.880;13.012;2022-10-16T14:39:52;101241.59;;;16.24;100.00
56064;BME280;41940;52.880;13.012;2022-10-16T14:42:20;101247.78;;;16.18;100.00